sensor_id;sensor_type;location;lat;lon;timestamp;P1;durP1;ratioP1;P2;durP2;ratioP2
34741;SDS011;20968;42.696;23.360;2024-03-02T00:02:23;92.47;;;44.85;;
34741;SDS011;20968;42.696;23.360;2024-03-02T00:04:49;92.13;;;44.83;;
34741;SDS011;20968;42.696;23.360;2024-03-02T00:07:14;91.90;;;41.72;;
34741;SDS011;20968;42.696;23.360;2024-03-02T00:09:40;90.53;;;43.78;;
34741;SDS011;20968;42.696;23.360;2024-03-02T00:12:05;86.72;;;45.17;;
34741;SDS011;20968;42.696;23.360;2024-03-02T00:14:31;85.18;;;40.33;;
34741;SDS011;20968;42.696;23.360;2024-03-02T00:16:57;89.88;;;40.75;;
34741;SDS011;20968;42.696;23.360;2024-03-02T00:19:23;88.80;;;45.80;;
34741;SDS011;20968;42.696;23.360;2024-03-02T00:21:50;90.82;;;40.08;;
34741;SDS011;20968;42.696;23.360;2024-03-02T00:26:45;90.85;;;38.42;;
34741;SDS011;20968;42.696;23.360;2024-03-02T00:29:11;89.78;;;42.13;;
34741;SDS011;20968;42.696;23.360;2024-03-02T00:31:41;85.35;;;40.60;;
34741;SDS011;20968;42.696;23.360;2024-03-02T00:34:07;88.82;;;42.92;;
34741;SDS011;20968;42.696;23.360;2024-03-02T00:36:32;86.28;;;43.28;;
34741;SDS011;20968;42.696;23.360;2024-03-02T00:38:58;97.65;;;43.03;;
34741;SDS011;20968;42.696;23.360;2024-03-02T00:41:29;86.93;;;40.40;;
34741;SDS011;20968;42.696;23.360;2024-03-02T00:46:23;91.45;;;43.58;;
34741;SDS011;20968;42.696;23.360;2024-03-02T00:48:53;87.78;;;45.10;;
34741;SDS011;20968;42.696;23.360;2024-03-02T00:51:21;83.63;;;39.45;;
34741;SDS011;20968;42.696;23.360;2024-03-02T00:53:48;91.68;;;40.67;;
34741;SDS011;20968;42.696;23.360;2024-03-02T00:56:14;86.82;;;41.42;;
34741;SDS011;20968;42.696;23.360;2024-03-02T00:58:40;88.57;;;37.65;;
34741;SDS011;20968;42.696;23.360;2024-03-02T01:01:05;86.95;;;44.63;;
34741;SDS011;20968;42.696;23.360;2024-03-02T01:03:32;86.03;;;39.15;;
34741;SDS011;20968;42.696;23.360;2024-03-02T01:05:58;89.88;;;42.17;;
34741;SDS011;20968;42.696;23.360;2024-03-02T01:08:24;86.80;;;39.35;;
34741;SDS011;20968;42.696;23.360;2024-03-02T01:10:49;87.30;;;40.67;;
34741;SDS011;20968;42.696;23.360;2024-03-02T01:13:15;90.15;;;42.60;;
34741;SDS011;20968;42.696;23.360;2024-03-02T01:15:40;88.45;;;43.60;;
34741;SDS011;20968;42.696;23.360;2024-03-02T01:18:06;89.20;;;43.10;;
34741;SDS011;20968;42.696;23.360;2024-03-02T01:20:31;85.88;;;40.78;;
34741;SDS011;20968;42.696;23.360;2024-03-02T01:22:57;88.00;;;37.83;;
34741;SDS011;20968;42.696;23.360;2024-03-02T01:25:22;84.40;;;43.60;;
34741;SDS011;20968;42.696;23.360;2024-03-02T01:27:48;86.88;;;39.03;;
34741;SDS011;20968;42.696;23.360;2024-03-02T01:30:13;89.95;;;42.08;;
34741;SDS011;20968;42.696;23.360;2024-03-02T01:32:39;85.97;;;40.22;;
34741;SDS011;20968;42.696;23.360;2024-03-02T01:35:04;91.75;;;43.67;;
34741;SDS011;20968;42.696;23.360;2024-03-02T01:37:30;96.55;;;47.83;;
34741;SDS011;20968;42.696;23.360;2024-03-02T01:39:56;97.15;;;47.08;;
34741;SDS011;20968;42.696;23.360;2024-03-02T01:42:21;101.40;;;45.53;;
34741;SDS011;20968;42.696;23.360;2024-03-02T01:44:47;94.88;;;48.70;;
34741;SDS011;20968;42.696;23.360;2024-03-02T01:47:12;102.95;;;42.70;;
34741;SDS011;20968;42.696;23.360;2024-03-02T01:49:38;89.82;;;43.65;;
34741;SDS011;20968;42.696;23.360;2024-03-02T01:52:05;90.95;;;39.63;;
34741;SDS011;20968;42.696;23.360;2024-03-02T01:54:31;95.75;;;44.88;;
34741;SDS011;20968;42.696;23.360;2024-03-02T01:56:56;102.72;;;45.13;;
34741;SDS011;20968;42.696;23.360;2024-03-02T01:59:22;100.05;;;47.35;;
34741;SDS011;20968;42.696;23.360;2024-03-02T02:01:47;95.65;;;48.22;;
34741;SDS011;20968;42.696;23.360;2024-03-02T02:04:13;99.35;;;41.17;;
34741;SDS011;20968;42.696;23.360;2024-03-02T02:06:38;95.88;;;44.25;;
34741;SDS011;20968;42.696;23.360;2024-03-02T02:09:04;97.60;;;43.53;;
34741;SDS011;20968;42.696;23.360;2024-03-02T02:11:29;96.88;;;42.63;;
34741;SDS011;20968;42.696;23.360;2024-03-02T02:13:55;96.57;;;42.97;;
34741;SDS011;20968;42.696;23.360;2024-03-02T02:16:23;96.40;;;45.72;;
34741;SDS011;20968;42.696;23.360;2024-03-02T02:18:48;94.10;;;47.65;;
34741;SDS011;20968;42.696;23.360;2024-03-02T02:21:13;91.93;;;46.38;;
34741;SDS011;20968;42.696;23.360;2024-03-02T02:23:39;93.38;;;43.97;;
34741;SDS011;20968;42.696;23.360;2024-03-02T02:26:04;88.75;;;41.88;;
34741;SDS011;20968;42.696;23.360;2024-03-02T02:28:30;99.68;;;47.75;;
34741;SDS011;20968;42.696;23.360;2024-03-02T02:30:55;92.97;;;45.90;;
34741;SDS011;20968;42.696;23.360;2024-03-02T02:33:25;93.63;;;44.20;;
34741;SDS011;20968;42.696;23.360;2024-03-02T02:35:50;88.93;;;41.63;;
34741;SDS011;20968;42.696;23.360;2024-03-02T02:38:15;93.72;;;44.60;;
34741;SDS011;20968;42.696;23.360;2024-03-02T02:40:41;90.40;;;44.05;;
34741;SDS011;20968;42.696;23.360;2024-03-02T02:43:06;95.85;;;43.60;;
34741;SDS011;20968;42.696;23.360;2024-03-02T02:45:32;93.78;;;45.55;;
34741;SDS011;20968;42.696;23.360;2024-03-02T02:47:57;94.18;;;44.53;;
34741;SDS011;20968;42.696;23.360;2024-03-02T02:50:23;94.32;;;47.05;;
34741;SDS011;20968;42.696;23.360;2024-03-02T02:52:48;99.60;;;43.83;;
34741;SDS011;20968;42.696;23.360;2024-03-02T02:55:13;93.93;;;42.97;;
34741;SDS011;20968;42.696;23.360;2024-03-02T02:57:41;117.88;;;53.83;;
34741;SDS011;20968;42.696;23.360;2024-03-02T03:00:08;113.93;;;59.28;;
34741;SDS011;20968;42.696;23.360;2024-03-02T03:02:42;124.43;;;56.97;;
34741;SDS011;20968;42.696;23.360;2024-03-02T03:05:09;120.90;;;60.00;;
34741;SDS011;20968;42.696;23.360;2024-03-02T03:07:36;108.05;;;53.60;;
34741;SDS011;20968;42.696;23.360;2024-03-02T03:10:02;109.78;;;54.92;;
34741;SDS011;20968;42.696;23.360;2024-03-02T03:12:29;104.22;;;52.50;;
34741;SDS011;20968;42.696;23.360;2024-03-02T03:14:55;104.53;;;50.67;;
34741;SDS011;20968;42.696;23.360;2024-03-02T03:17:21;103.85;;;47.03;;
34741;SDS011;20968;42.696;23.360;2024-03-02T03:19:47;92.78;;;47.50;;
34741;SDS011;20968;42.696;23.360;2024-03-02T03:22:12;95.22;;;45.08;;
34741;SDS011;20968;42.696;23.360;2024-03-02T03:24:38;94.35;;;46.28;;
34741;SDS011;20968;42.696;23.360;2024-03-02T03:27:03;95.68;;;49.97;;
34741;SDS011;20968;42.696;23.360;2024-03-02T03:29:29;91.82;;;46.78;;
34741;SDS011;20968;42.696;23.360;2024-03-02T03:31:54;101.53;;;41.75;;
34741;SDS011;20968;42.696;23.360;2024-03-02T03:34:20;94.68;;;40.28;;
34741;SDS011;20968;42.696;23.360;2024-03-02T03:36:45;91.15;;;42.47;;
34741;SDS011;20968;42.696;23.360;2024-03-02T03:39:10;90.22;;;39.97;;
34741;SDS011;20968;42.696;23.360;2024-03-02T03:41:36;91.55;;;46.63;;
34741;SDS011;20968;42.696;23.360;2024-03-02T03:44:01;90.90;;;38.55;;
34741;SDS011;20968;42.696;23.360;2024-03-02T03:46:26;89.75;;;43.25;;
34741;SDS011;20968;42.696;23.360;2024-03-02T03:48:52;91.28;;;47.05;;
34741;SDS011;20968;42.696;23.360;2024-03-02T03:51:17;89.10;;;41.20;;
34741;SDS011;20968;42.696;23.360;2024-03-02T03:53:43;92.80;;;47.92;;
34741;SDS011;20968;42.696;23.360;2024-03-02T03:56:08;93.65;;;46.85;;
34741;SDS011;20968;42.696;23.360;2024-03-02T03:58:33;98.28;;;41.53;;
34741;SDS011;20968;42.696;23.360;2024-03-02T04:00:59;95.70;;;39.88;;
34741;SDS011;20968;42.696;23.360;2024-03-02T04:03:24;97.72;;;43.97;;
34741;SDS011;20968;42.696;23.360;2024-03-02T04:05:50;91.07;;;37.85;;
34741;SDS011;20968;42.696;23.360;2024-03-02T04:08:15;83.47;;;43.30;;
34741;SDS011;20968;42.696;23.360;2024-03-02T04:10:41;88.45;;;41.85;;
34741;SDS011;20968;42.696;23.360;2024-03-02T04:13:07;92.63;;;45.28;;
34741;SDS011;20968;42.696;23.360;2024-03-02T04:15:32;91.13;;;43.53;;
34741;SDS011;20968;42.696;23.360;2024-03-02T04:17:58;89.47;;;43.65;;
34741;SDS011;20968;42.696;23.360;2024-03-02T04:20:23;95.22;;;42.90;;
34741;SDS011;20968;42.696;23.360;2024-03-02T04:22:49;92.85;;;43.80;;
34741;SDS011;20968;42.696;23.360;2024-03-02T04:25:14;93.00;;;46.30;;
34741;SDS011;20968;42.696;23.360;2024-03-02T04:27:39;92.20;;;37.60;;
34741;SDS011;20968;42.696;23.360;2024-03-02T04:30:05;92.85;;;44.75;;
34741;SDS011;20968;42.696;23.360;2024-03-02T04:32:31;90.97;;;41.30;;
34741;SDS011;20968;42.696;23.360;2024-03-02T04:34:56;95.18;;;43.72;;
34741;SDS011;20968;42.696;23.360;2024-03-02T04:37:22;92.10;;;45.50;;
34741;SDS011;20968;42.696;23.360;2024-03-02T04:39:47;94.43;;;47.45;;
34741;SDS011;20968;42.696;23.360;2024-03-02T04:42:13;97.93;;;46.05;;
34741;SDS011;20968;42.696;23.360;2024-03-02T04:44:38;89.68;;;40.40;;
34741;SDS011;20968;42.696;23.360;2024-03-02T04:47:04;92.70;;;43.15;;
34741;SDS011;20968;42.696;23.360;2024-03-02T04:49:30;85.90;;;47.45;;
34741;SDS011;20968;42.696;23.360;2024-03-02T04:51:55;93.60;;;43.45;;
34741;SDS011;20968;42.696;23.360;2024-03-02T04:54:21;97.07;;;42.78;;
34741;SDS011;20968;42.696;23.360;2024-03-02T04:56:47;91.07;;;41.88;;
34741;SDS011;20968;42.696;23.360;2024-03-02T04:59:16;86.35;;;43.25;;
34741;SDS011;20968;42.696;23.360;2024-03-02T05:01:42;90.78;;;41.53;;
34741;SDS011;20968;42.696;23.360;2024-03-02T05:04:08;93.97;;;42.72;;
34741;SDS011;20968;42.696;23.360;2024-03-02T05:06:33;92.53;;;39.28;;
34741;SDS011;20968;42.696;23.360;2024-03-02T05:08:58;86.68;;;40.67;;
34741;SDS011;20968;42.696;23.360;2024-03-02T05:11:24;98.72;;;40.13;;
34741;SDS011;20968;42.696;23.360;2024-03-02T05:14:05;91.55;;;42.70;;
34741;SDS011;20968;42.696;23.360;2024-03-02T05:16:34;91.97;;;41.28;;
34741;SDS011;20968;42.696;23.360;2024-03-02T05:19:00;98.68;;;44.08;;
34741;SDS011;20968;42.696;23.360;2024-03-02T05:21:25;97.57;;;42.00;;
34741;SDS011;20968;42.696;23.360;2024-03-02T05:23:51;95.53;;;43.53;;
34741;SDS011;20968;42.696;23.360;2024-03-02T05:26:16;90.15;;;44.17;;
34741;SDS011;20968;42.696;23.360;2024-03-02T05:28:42;92.85;;;43.45;;
34741;SDS011;20968;42.696;23.360;2024-03-02T05:31:10;95.30;;;42.70;;
34741;SDS011;20968;42.696;23.360;2024-03-02T05:33:37;97.93;;;43.75;;
34741;SDS011;20968;42.696;23.360;2024-03-02T05:36:03;88.88;;;45.47;;
34741;SDS011;20968;42.696;23.360;2024-03-02T05:38:29;89.60;;;39.85;;
34741;SDS011;20968;42.696;23.360;2024-03-02T05:40:55;92.03;;;47.20;;
34741;SDS011;20968;42.696;23.360;2024-03-02T05:43:20;98.60;;;43.47;;
34741;SDS011;20968;42.696;23.360;2024-03-02T05:45:45;103.00;;;46.92;;
34741;SDS011;20968;42.696;23.360;2024-03-02T05:48:11;95.60;;;43.80;;
34741;SDS011;20968;42.696;23.360;2024-03-02T05:50:36;95.55;;;44.33;;
34741;SDS011;20968;42.696;23.360;2024-03-02T05:53:02;95.70;;;44.80;;
34741;SDS011;20968;42.696;23.360;2024-03-02T05:55:27;104.20;;;47.20;;
34741;SDS011;20968;42.696;23.360;2024-03-02T05:57:52;99.93;;;45.50;;
34741;SDS011;20968;42.696;23.360;2024-03-02T06:00:37;95.03;;;50.03;;
34741;SDS011;20968;42.696;23.360;2024-03-02T06:03:03;105.55;;;48.55;;
34741;SDS011;20968;42.696;23.360;2024-03-02T06:05:29;100.00;;;47.60;;
34741;SDS011;20968;42.696;23.360;2024-03-02T06:07:54;98.30;;;45.17;;
34741;SDS011;20968;42.696;23.360;2024-03-02T06:10:20;99.68;;;49.95;;
34741;SDS011;20968;42.696;23.360;2024-03-02T06:12:45;101.28;;;48.00;;
34741;SDS011;20968;42.696;23.360;2024-03-02T06:15:11;103.82;;;48.25;;
34741;SDS011;20968;42.696;23.360;2024-03-02T06:17:36;105.63;;;50.22;;
34741;SDS011;20968;42.696;23.360;2024-03-02T06:20:02;96.38;;;48.67;;
34741;SDS011;20968;42.696;23.360;2024-03-02T06:22:28;99.05;;;46.50;;
34741;SDS011;20968;42.696;23.360;2024-03-02T06:24:53;101.85;;;47.00;;
34741;SDS011;20968;42.696;23.360;2024-03-02T06:27:18;107.68;;;47.92;;
34741;SDS011;20968;42.696;23.360;2024-03-02T06:29:44;103.68;;;46.33;;
34741;SDS011;20968;42.696;23.360;2024-03-02T06:32:09;103.28;;;49.47;;
34741;SDS011;20968;42.696;23.360;2024-03-02T06:34:34;96.63;;;46.70;;
34741;SDS011;20968;42.696;23.360;2024-03-02T06:37:00;102.82;;;46.05;;
34741;SDS011;20968;42.696;23.360;2024-03-02T06:39:25;97.78;;;47.78;;
34741;SDS011;20968;42.696;23.360;2024-03-02T06:41:51;91.97;;;43.30;;
34741;SDS011;20968;42.696;23.360;2024-03-02T06:44:17;96.50;;;43.22;;
34741;SDS011;20968;42.696;23.360;2024-03-02T06:46:42;91.80;;;44.40;;
34741;SDS011;20968;42.696;23.360;2024-03-02T06:49:08;93.50;;;41.05;;
34741;SDS011;20968;42.696;23.360;2024-03-02T06:51:35;90.47;;;46.25;;
34741;SDS011;20968;42.696;23.360;2024-03-02T06:54:00;92.25;;;42.97;;
34741;SDS011;20968;42.696;23.360;2024-03-02T06:56:26;90.28;;;42.75;;
34741;SDS011;20968;42.696;23.360;2024-03-02T06:58:51;90.15;;;39.53;;
34741;SDS011;20968;42.696;23.360;2024-03-02T07:01:17;88.15;;;44.58;;
34741;SDS011;20968;42.696;23.360;2024-03-02T07:03:42;82.00;;;39.95;;
34741;SDS011;20968;42.696;23.360;2024-03-02T07:06:09;97.13;;;39.95;;
34741;SDS011;20968;42.696;23.360;2024-03-02T07:08:34;90.90;;;39.58;;
34741;SDS011;20968;42.696;23.360;2024-03-02T07:11:00;90.50;;;39.72;;
34741;SDS011;20968;42.696;23.360;2024-03-02T07:13:25;94.55;;;44.85;;
34741;SDS011;20968;42.696;23.360;2024-03-02T07:15:51;95.38;;;41.17;;
34741;SDS011;20968;42.696;23.360;2024-03-02T07:18:29;93.32;;;47.53;;
34741;SDS011;20968;42.696;23.360;2024-03-02T07:20:55;96.43;;;45.08;;
34741;SDS011;20968;42.696;23.360;2024-03-02T07:23:23;106.18;;;44.85;;
34741;SDS011;20968;42.696;23.360;2024-03-02T07:25:52;90.50;;;44.33;;
34741;SDS011;20968;42.696;23.360;2024-03-02T07:28:19;98.85;;;43.92;;
34741;SDS011;20968;42.696;23.360;2024-03-02T07:30:45;92.45;;;45.95;;
34741;SDS011;20968;42.696;23.360;2024-03-02T07:35:55;91.45;;;45.58;;
34741;SDS011;20968;42.696;23.360;2024-03-02T07:38:21;98.72;;;43.33;;
34741;SDS011;20968;42.696;23.360;2024-03-02T07:40:48;96.88;;;43.45;;
34741;SDS011;20968;42.696;23.360;2024-03-02T07:43:18;103.90;;;48.03;;
34741;SDS011;20968;42.696;23.360;2024-03-02T07:45:44;92.07;;;42.72;;
34741;SDS011;20968;42.696;23.360;2024-03-02T07:48:10;103.47;;;43.95;;
34741;SDS011;20968;42.696;23.360;2024-03-02T07:50:35;101.40;;;46.75;;
34741;SDS011;20968;42.696;23.360;2024-03-02T07:53:02;101.90;;;48.08;;
34741;SDS011;20968;42.696;23.360;2024-03-02T07:55:28;93.38;;;43.33;;
34741;SDS011;20968;42.696;23.360;2024-03-02T07:57:54;103.40;;;44.33;;
34741;SDS011;20968;42.696;23.360;2024-03-02T08:00:20;98.60;;;48.53;;
34741;SDS011;20968;42.696;23.360;2024-03-02T08:02:45;104.40;;;42.88;;
34741;SDS011;20968;42.696;23.360;2024-03-02T08:05:11;94.05;;;46.67;;
34741;SDS011;20968;42.696;23.360;2024-03-02T08:07:36;104.28;;;44.30;;
34741;SDS011;20968;42.696;23.360;2024-03-02T08:10:02;103.32;;;45.20;;
34741;SDS011;20968;42.696;23.360;2024-03-02T08:12:27;100.25;;;46.35;;
34741;SDS011;20968;42.696;23.360;2024-03-02T08:14:53;97.53;;;42.78;;
34741;SDS011;20968;42.696;23.360;2024-03-02T08:17:18;97.57;;;45.15;;
34741;SDS011;20968;42.696;23.360;2024-03-02T08:19:44;95.35;;;41.55;;
34741;SDS011;20968;42.696;23.360;2024-03-02T08:22:09;98.47;;;46.42;;
34741;SDS011;20968;42.696;23.360;2024-03-02T08:24:35;102.68;;;45.55;;
34741;SDS011;20968;42.696;23.360;2024-03-02T08:27:01;103.95;;;42.67;;
34741;SDS011;20968;42.696;23.360;2024-03-02T08:29:26;95.35;;;44.40;;
34741;SDS011;20968;42.696;23.360;2024-03-02T08:31:52;98.97;;;41.08;;
34741;SDS011;20968;42.696;23.360;2024-03-02T08:34:18;95.55;;;45.47;;
34741;SDS011;20968;42.696;23.360;2024-03-02T08:36:43;96.78;;;49.53;;
34741;SDS011;20968;42.696;23.360;2024-03-02T08:39:09;101.97;;;48.50;;
34741;SDS011;20968;42.696;23.360;2024-03-02T08:41:49;91.25;;;45.55;;
34741;SDS011;20968;42.696;23.360;2024-03-02T08:44:15;98.25;;;45.47;;
34741;SDS011;20968;42.696;23.360;2024-03-02T08:46:41;110.18;;;53.22;;
34741;SDS011;20968;42.696;23.360;2024-03-02T08:49:06;111.82;;;49.40;;
34741;SDS011;20968;42.696;23.360;2024-03-02T08:51:32;102.22;;;49.38;;
34741;SDS011;20968;42.696;23.360;2024-03-02T08:53:58;99.55;;;47.58;;
34741;SDS011;20968;42.696;23.360;2024-03-02T08:56:24;105.43;;;50.83;;
34741;SDS011;20968;42.696;23.360;2024-03-02T08:58:50;99.00;;;48.70;;
34741;SDS011;20968;42.696;23.360;2024-03-02T09:01:16;97.25;;;46.78;;
34741;SDS011;20968;42.696;23.360;2024-03-02T09:03:42;98.10;;;44.25;;
34741;SDS011;20968;42.696;23.360;2024-03-02T09:06:11;97.25;;;42.00;;
34741;SDS011;20968;42.696;23.360;2024-03-02T09:08:37;98.88;;;45.05;;
34741;SDS011;20968;42.696;23.360;2024-03-02T09:11:04;101.88;;;46.03;;
34741;SDS011;20968;42.696;23.360;2024-03-02T09:13:30;101.25;;;43.63;;
34741;SDS011;20968;42.696;23.360;2024-03-02T09:15:56;102.43;;;47.35;;
34741;SDS011;20968;42.696;23.360;2024-03-02T09:18:21;95.15;;;45.67;;
34741;SDS011;20968;42.696;23.360;2024-03-02T09:20:47;104.25;;;45.95;;
34741;SDS011;20968;42.696;23.360;2024-03-02T09:23:12;104.45;;;44.17;;
34741;SDS011;20968;42.696;23.360;2024-03-02T09:25:37;97.85;;;44.38;;
34741;SDS011;20968;42.696;23.360;2024-03-02T09:28:03;93.82;;;43.65;;
34741;SDS011;20968;42.696;23.360;2024-03-02T09:30:28;94.63;;;43.05;;
34741;SDS011;20968;42.696;23.360;2024-03-02T09:32:54;96.70;;;47.67;;
34741;SDS011;20968;42.696;23.360;2024-03-02T09:35:19;106.20;;;49.22;;
34741;SDS011;20968;42.696;23.360;2024-03-02T09:37:45;95.07;;;44.13;;
34741;SDS011;20968;42.696;23.360;2024-03-02T09:40:10;92.70;;;43.45;;
34741;SDS011;20968;42.696;23.360;2024-03-02T09:42:36;100.63;;;40.25;;
34741;SDS011;20968;42.696;23.360;2024-03-02T09:45:02;98.40;;;45.35;;
34741;SDS011;20968;42.696;23.360;2024-03-02T09:47:28;99.90;;;46.17;;
34741;SDS011;20968;42.696;23.360;2024-03-02T09:49:54;96.43;;;43.95;;
34741;SDS011;20968;42.696;23.360;2024-03-02T09:52:20;93.63;;;42.22;;
34741;SDS011;20968;42.696;23.360;2024-03-02T09:54:47;102.72;;;44.28;;
34741;SDS011;20968;42.696;23.360;2024-03-02T09:57:13;88.72;;;41.08;;
34741;SDS011;20968;42.696;23.360;2024-03-02T09:59:38;93.30;;;43.13;;
34741;SDS011;20968;42.696;23.360;2024-03-02T10:02:03;88.45;;;42.78;;
34741;SDS011;20968;42.696;23.360;2024-03-02T10:04:32;91.20;;;44.65;;
34741;SDS011;20968;42.696;23.360;2024-03-02T10:07:19;97.30;;;44.17;;
34741;SDS011;20968;42.696;23.360;2024-03-02T10:09:47;93.03;;;46.45;;
34741;SDS011;20968;42.696;23.360;2024-03-02T10:12:14;96.07;;;45.42;;
34741;SDS011;20968;42.696;23.360;2024-03-02T10:14:41;93.80;;;43.35;;
34741;SDS011;20968;42.696;23.360;2024-03-02T10:17:08;92.80;;;41.97;;
34741;SDS011;20968;42.696;23.360;2024-03-02T10:19:35;90.45;;;41.75;;
34741;SDS011;20968;42.696;23.360;2024-03-02T10:22:02;90.75;;;40.90;;
34741;SDS011;20968;42.696;23.360;2024-03-02T10:27:14;89.63;;;40.85;;
34741;SDS011;20968;42.696;23.360;2024-03-02T10:29:41;89.20;;;44.22;;
34741;SDS011;20968;42.696;23.360;2024-03-02T10:32:08;86.10;;;42.97;;
34741;SDS011;20968;42.696;23.360;2024-03-02T10:34:36;85.60;;;36.58;;
34741;SDS011;20968;42.696;23.360;2024-03-02T10:37:02;85.97;;;39.83;;
34741;SDS011;20968;42.696;23.360;2024-03-02T10:39:28;88.40;;;38.88;;
34741;SDS011;20968;42.696;23.360;2024-03-02T10:41:55;88.88;;;37.92;;
34741;SDS011;20968;42.696;23.360;2024-03-02T10:44:22;85.22;;;37.58;;
34741;SDS011;20968;42.696;23.360;2024-03-02T10:46:47;85.13;;;40.55;;
34741;SDS011;20968;42.696;23.360;2024-03-02T10:49:15;83.63;;;37.15;;
34741;SDS011;20968;42.696;23.360;2024-03-02T10:51:42;87.80;;;40.28;;
34741;SDS011;20968;42.696;23.360;2024-03-02T10:54:07;90.30;;;40.65;;
34741;SDS011;20968;42.696;23.360;2024-03-02T10:56:34;87.32;;;38.08;;
34741;SDS011;20968;42.696;23.360;2024-03-02T10:59:24;84.25;;;37.75;;
34741;SDS011;20968;42.696;23.360;2024-03-02T11:01:51;83.82;;;43.50;;
34741;SDS011;20968;42.696;23.360;2024-03-02T11:04:21;81.35;;;37.72;;
34741;SDS011;20968;42.696;23.360;2024-03-02T11:06:49;80.50;;;36.30;;
34741;SDS011;20968;42.696;23.360;2024-03-02T11:09:16;88.07;;;44.28;;
34741;SDS011;20968;42.696;23.360;2024-03-02T11:11:45;90.05;;;39.35;;
34741;SDS011;20968;42.696;23.360;2024-03-02T11:14:17;93.13;;;40.83;;
34741;SDS011;20968;42.696;23.360;2024-03-02T11:16:48;84.65;;;39.60;;
34741;SDS011;20968;42.696;23.360;2024-03-02T11:19:15;86.38;;;39.45;;
34741;SDS011;20968;42.696;23.360;2024-03-02T11:21:41;85.82;;;40.53;;
34741;SDS011;20968;42.696;23.360;2024-03-02T11:26:49;88.85;;;42.25;;
34741;SDS011;20968;42.696;23.360;2024-03-02T11:29:42;82.43;;;42.20;;
34741;SDS011;20968;42.696;23.360;2024-03-02T11:32:06;88.10;;;39.00;;
34741;SDS011;20968;42.696;23.360;2024-03-02T11:34:40;86.25;;;39.55;;
34741;SDS011;20968;42.696;23.360;2024-03-02T11:37:11;86.35;;;40.55;;
34741;SDS011;20968;42.696;23.360;2024-03-02T11:39:37;85.75;;;43.58;;
34741;SDS011;20968;42.696;23.360;2024-03-02T11:42:07;88.47;;;39.83;;
34741;SDS011;20968;42.696;23.360;2024-03-02T11:44:36;92.20;;;41.90;;
34741;SDS011;20968;42.696;23.360;2024-03-02T11:47:07;97.28;;;46.50;;
34741;SDS011;20968;42.696;23.360;2024-03-02T11:52:06;91.85;;;41.22;;
34741;SDS011;20968;42.696;23.360;2024-03-02T11:54:33;92.57;;;43.60;;
34741;SDS011;20968;42.696;23.360;2024-03-02T11:57:03;84.97;;;43.00;;
34741;SDS011;20968;42.696;23.360;2024-03-02T11:59:29;82.03;;;39.72;;
34741;SDS011;20968;42.696;23.360;2024-03-02T12:01:55;88.10;;;38.15;;
34741;SDS011;20968;42.696;23.360;2024-03-02T12:04:22;87.68;;;40.17;;
34741;SDS011;20968;42.696;23.360;2024-03-02T12:06:48;85.28;;;38.97;;
34741;SDS011;20968;42.696;23.360;2024-03-02T12:09:20;82.50;;;39.58;;
34741;SDS011;20968;42.696;23.360;2024-03-02T12:11:46;77.80;;;36.05;;
34741;SDS011;20968;42.696;23.360;2024-03-02T12:14:11;101.10;;;53.70;;
34741;SDS011;20968;42.696;23.360;2024-03-02T12:16:43;99.03;;;52.28;;
34741;SDS011;20968;42.696;23.360;2024-03-02T12:19:09;114.53;;;65.97;;
34741;SDS011;20968;42.696;23.360;2024-03-02T12:21:34;88.85;;;44.70;;
34741;SDS011;20968;42.696;23.360;2024-03-02T12:24:01;83.05;;;39.45;;
34741;SDS011;20968;42.696;23.360;2024-03-02T12:26:27;92.05;;;43.33;;
34741;SDS011;20968;42.696;23.360;2024-03-02T12:28:53;82.03;;;39.80;;
34741;SDS011;20968;42.696;23.360;2024-03-02T12:31:20;82.78;;;41.38;;
34741;SDS011;20968;42.696;23.360;2024-03-02T12:33:46;84.07;;;37.28;;
34741;SDS011;20968;42.696;23.360;2024-03-02T12:36:13;75.90;;;37.55;;
34741;SDS011;20968;42.696;23.360;2024-03-02T12:38:43;75.93;;;36.15;;
34741;SDS011;20968;42.696;23.360;2024-03-02T12:41:09;79.88;;;37.05;;
34741;SDS011;20968;42.696;23.360;2024-03-02T12:43:34;85.18;;;37.03;;
34741;SDS011;20968;42.696;23.360;2024-03-02T12:45:59;75.07;;;35.97;;
34741;SDS011;20968;42.696;23.360;2024-03-02T12:48:25;74.57;;;36.67;;
34741;SDS011;20968;42.696;23.360;2024-03-02T12:50:50;82.30;;;35.80;;
34741;SDS011;20968;42.696;23.360;2024-03-02T12:53:16;77.28;;;32.25;;
34741;SDS011;20968;42.696;23.360;2024-03-02T12:55:41;77.30;;;38.97;;
34741;SDS011;20968;42.696;23.360;2024-03-02T12:58:15;74.68;;;35.60;;
34741;SDS011;20968;42.696;23.360;2024-03-02T13:00:42;80.18;;;37.55;;
34741;SDS011;20968;42.696;23.360;2024-03-02T13:03:07;74.03;;;33.13;;
34741;SDS011;20968;42.696;23.360;2024-03-02T13:05:33;83.18;;;37.67;;
34741;SDS011;20968;42.696;23.360;2024-03-02T13:07:58;74.35;;;33.05;;
34741;SDS011;20968;42.696;23.360;2024-03-02T13:10:24;78.47;;;34.47;;
34741;SDS011;20968;42.696;23.360;2024-03-02T13:12:50;77.70;;;35.28;;
34741;SDS011;20968;42.696;23.360;2024-03-02T13:15:15;76.75;;;38.25;;
34741;SDS011;20968;42.696;23.360;2024-03-02T13:17:41;81.57;;;36.63;;
34741;SDS011;20968;42.696;23.360;2024-03-02T13:20:06;77.53;;;32.40;;
34741;SDS011;20968;42.696;23.360;2024-03-02T13:22:35;75.22;;;37.50;;
34741;SDS011;20968;42.696;23.360;2024-03-02T13:25:01;76.18;;;38.65;;
34741;SDS011;20968;42.696;23.360;2024-03-02T13:27:29;78.50;;;38.13;;
34741;SDS011;20968;42.696;23.360;2024-03-02T13:29:56;77.15;;;38.03;;
34741;SDS011;20968;42.696;23.360;2024-03-02T13:32:21;78.07;;;35.78;;
34741;SDS011;20968;42.696;23.360;2024-03-02T13:34:49;79.68;;;40.85;;
34741;SDS011;20968;42.696;23.360;2024-03-02T13:37:14;75.43;;;37.70;;
34741;SDS011;20968;42.696;23.360;2024-03-02T13:39:40;82.53;;;37.05;;
34741;SDS011;20968;42.696;23.360;2024-03-02T13:42:07;79.03;;;37.35;;
34741;SDS011;20968;42.696;23.360;2024-03-02T13:44:33;77.22;;;38.00;;
34741;SDS011;20968;42.696;23.360;2024-03-02T13:46:59;77.30;;;34.75;;
34741;SDS011;20968;42.696;23.360;2024-03-02T13:49:25;79.60;;;35.67;;
34741;SDS011;20968;42.696;23.360;2024-03-02T13:51:58;80.68;;;39.70;;
34741;SDS011;20968;42.696;23.360;2024-03-02T13:54:25;76.97;;;35.38;;
34741;SDS011;20968;42.696;23.360;2024-03-02T13:56:51;81.85;;;35.53;;
34741;SDS011;20968;42.696;23.360;2024-03-02T13:59:17;77.47;;;37.75;;
34741;SDS011;20968;42.696;23.360;2024-03-02T14:01:43;77.65;;;36.05;;
34741;SDS011;20968;42.696;23.360;2024-03-02T14:04:09;77.10;;;36.95;;
34741;SDS011;20968;42.696;23.360;2024-03-02T14:06:35;78.80;;;33.17;;
34741;SDS011;20968;42.696;23.360;2024-03-02T14:09:00;73.07;;;38.50;;
34741;SDS011;20968;42.696;23.360;2024-03-02T14:11:25;77.20;;;33.90;;
34741;SDS011;20968;42.696;23.360;2024-03-02T14:13:51;76.40;;;36.50;;
34741;SDS011;20968;42.696;23.360;2024-03-02T14:16:19;80.75;;;37.20;;
34741;SDS011;20968;42.696;23.360;2024-03-02T14:18:45;79.75;;;30.10;;